createdAt,value
2018-09-19T00:02:08.964Z,8.70
2018-09-19T00:04:37.433Z,9.83
2018-09-19T00:07:06.035Z,8.77
2018-09-19T00:09:34.674Z,11.13
2018-09-19T00:12:03.310Z,9.00
2018-09-19T00:14:31.831Z,8.07
2018-09-19T00:17:00.395Z,9.33
2018-09-19T00:19:29.034Z,8.10
2018-09-19T00:21:58.531Z,8.60
2018-09-19T00:24:27.078Z,7.57
2018-09-19T00:26:55.636Z,6.27
2018-09-19T00:29:24.250Z,6.57
2018-09-19T00:31:52.799Z,6.00
2018-09-19T00:34:21.424Z,5.60
2018-09-19T00:36:49.978Z,6.50
2018-09-19T00:39:18.556Z,7.47
2018-09-19T00:41:47.148Z,6.83
2018-09-19T00:44:15.698Z,6.00
2018-09-19T00:46:44.185Z,6.43
2018-09-19T00:49:12.833Z,6.17
2018-09-19T00:51:41.385Z,7.43
2018-09-19T00:54:09.940Z,6.17
2018-09-19T00:56:38.613Z,6.70
2018-09-19T00:59:08.128Z,7.10
2018-09-19T01:01:36.676Z,7.67
2018-09-19T01:04:05.252Z,8.57
2018-09-19T01:06:33.737Z,6.70
2018-09-19T01:09:02.263Z,8.13
2018-09-19T01:11:30.862Z,7.07
2018-09-19T01:13:59.479Z,6.93
2018-09-19T01:16:27.972Z,6.70
2018-09-19T01:18:58.725Z,6.83
2018-09-19T01:21:27.441Z,6.40
2018-09-19T01:23:57.978Z,6.17
2018-09-19T01:26:26.508Z,6.47
2018-09-19T01:28:55.145Z,6.43
2018-09-19T01:31:23.708Z,6.10
2018-09-19T01:33:52.300Z,6.87
2018-09-19T01:36:20.995Z,6.43
2018-09-19T01:38:49.584Z,6.43
2018-09-19T01:41:19.023Z,6.03
2018-09-19T01:43:47.513Z,5.93
2018-09-19T01:46:16.009Z,6.03
2018-09-19T01:48:45.620Z,6.87
2018-09-19T01:51:16.119Z,7.03
2018-09-19T01:53:44.642Z,7.73
2018-09-19T01:56:13.190Z,6.47
2018-09-19T01:58:41.792Z,6.53
2018-09-19T02:01:10.393Z,6.73
2018-09-19T02:03:38.984Z,8.20
2018-09-19T02:06:07.536Z,6.93
2018-09-19T02:08:36.166Z,7.63
2018-09-19T02:11:06.019Z,6.60
2018-09-19T02:13:36.573Z,7.63
2018-09-19T02:16:06.162Z,7.07
2018-09-19T02:18:34.791Z,7.03
2018-09-19T02:21:03.374Z,6.43
2018-09-19T02:23:31.909Z,6.93
2018-09-19T02:26:00.513Z,6.87
2018-09-19T02:28:29.237Z,7.00
2018-09-19T02:30:59.718Z,7.60
2018-09-19T02:33:28.331Z,7.80
2018-09-19T02:35:58.968Z,7.90
2018-09-19T02:38:27.589Z,7.97
2018-09-19T02:40:56.152Z,7.87
2018-09-19T02:43:24.661Z,8.30
2018-09-19T02:45:53.156Z,8.00
2018-09-19T02:48:21.756Z,7.53
2018-09-19T02:50:52.283Z,8.57
2018-09-19T02:53:20.895Z,7.97
2018-09-19T02:55:49.438Z,7.87
2018-09-19T02:58:18.010Z,7.07
2018-09-19T03:00:46.619Z,6.93
2018-09-19T03:03:15.175Z,7.13
2018-09-19T03:05:45.733Z,7.40
2018-09-19T03:08:15.325Z,6.40
2018-09-19T03:10:43.941Z,6.00
2018-09-19T03:13:12.814Z,6.17
2018-09-19T03:15:41.377Z,6.37
2018-09-19T03:18:10.005Z,7.10
2018-09-19T03:20:39.572Z,7.40
2018-09-19T03:23:08.188Z,7.57
2018-09-19T03:25:36.738Z,7.50
2018-09-19T03:28:05.400Z,7.37
2018-09-19T03:30:34.928Z,7.60
2018-09-19T03:33:03.528Z,7.80
2018-09-19T03:35:32.475Z,7.97
2018-09-19T03:38:01.019Z,7.30
2018-09-19T03:40:30.729Z,7.60
2018-09-19T03:42:59.245Z,6.53
2018-09-19T03:45:27.809Z,7.47
2018-09-19T03:47:56.314Z,6.67
2018-09-19T03:50:24.812Z,6.50
2018-09-19T03:52:53.391Z,7.10
2018-09-19T03:55:21.976Z,6.23
2018-09-19T03:57:52.482Z,6.53
2018-09-19T04:00:22.200Z,6.77
2018-09-19T04:02:50.866Z,7.20
2018-09-19T04:05:19.375Z,5.90
2018-09-19T04:07:47.944Z,6.40
2018-09-19T04:10:16.468Z,5.50
2018-09-19T04:12:45.065Z,5.77
2018-09-19T04:15:13.616Z,5.73
2018-09-19T04:17:42.231Z,6.30
2018-09-19T04:20:10.880Z,5.60
2018-09-19T04:22:39.342Z,6.10
2018-09-19T04:25:07.969Z,6.00
2018-09-19T04:27:38.586Z,6.07
2018-09-19T04:30:07.160Z,5.37
2018-09-19T04:32:35.718Z,5.77
2018-09-19T04:35:04.207Z,6.23
2018-09-19T04:37:32.805Z,6.10
2018-09-19T04:40:03.366Z,6.40
2018-09-19T04:42:31.913Z,6.23
2018-09-19T04:45:00.540Z,6.33
2018-09-19T04:47:29.074Z,6.50
2018-09-19T04:49:57.679Z,5.77
2018-09-19T04:52:26.267Z,6.30
2018-09-19T04:54:54.819Z,5.50
2018-09-19T04:57:23.401Z,5.13
2018-09-19T04:59:51.974Z,5.40
2018-09-19T05:02:20.611Z,6.00
2018-09-19T05:04:49.152Z,6.50
2018-09-19T05:07:17.802Z,6.57
2018-09-19T05:09:47.388Z,6.40
2018-09-19T05:12:16.000Z,6.87
2018-09-19T05:14:44.555Z,6.60
2018-09-19T05:17:13.136Z,7.33
2018-09-19T05:19:41.678Z,7.33
2018-09-19T05:22:10.260Z,6.67
2018-09-19T05:24:38.761Z,6.60
2018-09-19T05:27:07.326Z,8.70
2018-09-19T05:29:36.967Z,11.40
2018-09-19T05:34:40.467Z,38.57
2018-09-19T05:37:09.012Z,25.70
2018-09-19T05:39:39.550Z,20.03
2018-09-19T05:42:08.060Z,37.37
2018-09-19T05:44:37.509Z,43.17
2018-09-19T05:47:07.111Z,39.53
2018-09-19T05:49:35.607Z,32.83
2018-09-19T05:52:04.129Z,58.43
2018-09-19T05:54:36.757Z,49.77
2018-09-19T05:57:05.836Z,38.83
2018-09-19T05:59:34.314Z,29.67
2018-09-19T06:02:03.596Z,25.67
2018-09-19T06:04:33.161Z,18.70
2018-09-19T06:07:01.803Z,12.50
2018-09-19T06:09:30.317Z,9.57
2018-09-19T06:12:01.046Z,12.63
2018-09-19T06:14:29.559Z,10.90
2018-09-19T06:16:58.058Z,12.67
2018-09-19T06:19:27.685Z,12.53
2018-09-19T06:21:56.179Z,13.97
2018-09-19T06:24:24.680Z,12.50
2018-09-19T06:26:53.193Z,12.37
2018-09-19T06:29:21.712Z,9.43
2018-09-19T06:31:50.205Z,10.97
2018-09-19T06:34:18.689Z,8.17
2018-09-19T06:36:47.199Z,9.50
2018-09-19T06:39:15.695Z,9.10
2018-09-19T06:41:44.191Z,8.67
2018-09-19T06:44:12.664Z,9.70
2018-09-19T06:46:41.437Z,10.37
2018-09-19T06:49:09.891Z,11.30
2018-09-19T06:51:38.386Z,10.10
2018-09-19T06:54:08.967Z,8.90
2018-09-19T06:56:37.455Z,9.50
2018-09-19T06:59:06.123Z,10.40
2018-09-19T07:01:34.593Z,11.23
2018-09-19T07:04:03.087Z,8.03
2018-09-19T07:06:32.681Z,8.20
2018-09-19T07:09:01.176Z,10.33
2018-09-19T07:12:33.054Z,9.13
2018-09-19T07:15:01.565Z,11.23
2018-09-19T07:17:30.068Z,9.90
2018-09-19T07:22:45.505Z,8.30
2018-09-19T07:25:14.091Z,7.50
2018-09-19T07:27:42.463Z,8.27
2018-09-19T07:30:11.023Z,7.00
2018-09-19T07:32:39.511Z,7.43
2018-09-19T07:35:08.022Z,6.80
2018-09-19T07:37:36.542Z,7.80
2018-09-19T07:40:05.104Z,6.80
2018-09-19T07:42:33.549Z,7.20
2018-09-19T07:45:01.981Z,6.40
2018-09-19T07:47:30.684Z,7.27
2018-09-19T07:49:59.196Z,6.07
2018-09-19T07:52:27.702Z,7.60
2018-09-19T07:54:56.160Z,6.67
2018-09-19T07:57:24.909Z,8.17
2018-09-19T07:59:53.597Z,7.73
2018-09-19T08:02:22.241Z,6.50
2018-09-19T08:04:51.033Z,6.50
2018-09-19T08:07:20.736Z,6.17
2018-09-19T08:09:49.392Z,6.73
2018-09-19T08:12:17.804Z,6.97
2018-09-19T08:14:46.813Z,7.23
2018-09-19T08:17:15.426Z,7.00
2018-09-19T08:19:43.903Z,6.37
2018-09-19T08:22:12.635Z,6.60
2018-09-19T08:24:41.412Z,7.03
2018-09-19T08:27:10.402Z,6.57
2018-09-19T08:29:39.116Z,6.33
2018-09-19T08:32:07.808Z,6.23
2018-09-19T08:34:36.465Z,6.00
2018-09-19T08:37:05.169Z,6.23
2018-09-19T08:39:33.663Z,6.20
2018-09-19T08:42:02.226Z,6.50
2018-09-19T08:44:30.717Z,6.00
2018-09-19T08:46:59.180Z,6.53
2018-09-19T08:49:27.733Z,6.40
2018-09-19T08:51:56.274Z,5.53
2018-09-19T08:54:24.806Z,5.60
2018-09-19T08:56:54.331Z,6.50
2018-09-19T08:59:22.821Z,6.43
2018-09-19T09:01:51.271Z,6.00
2018-09-19T09:04:19.740Z,5.70
2018-09-19T09:06:48.245Z,5.60
2018-09-19T09:09:16.757Z,6.03
2018-09-19T09:11:45.289Z,4.90
2018-09-19T09:14:13.814Z,5.90
2018-09-19T09:16:42.321Z,5.50
2018-09-19T09:19:10.815Z,5.33
2018-09-19T09:21:39.376Z,5.70
2018-09-19T09:24:07.879Z,5.87
2018-09-19T09:26:36.521Z,5.30
2018-09-19T09:29:05.044Z,5.27
2018-09-19T09:31:33.510Z,4.50
2018-09-19T09:34:02.026Z,4.60
2018-09-19T09:36:30.536Z,4.80
2018-09-19T09:38:59.014Z,5.27
2018-09-19T09:41:27.502Z,4.87
2018-09-19T09:43:56.063Z,5.13
2018-09-19T09:46:24.532Z,4.80
2018-09-19T09:48:53.027Z,5.10
2018-09-19T09:51:21.539Z,4.90
2018-09-19T09:53:50.033Z,4.80
2018-09-19T09:56:18.540Z,4.60
2018-09-19T09:58:47.056Z,5.10
2018-09-19T10:01:15.509Z,4.53
2018-09-19T10:03:44.021Z,4.87
2018-09-19T10:06:12.551Z,4.53
2018-09-19T10:08:41.028Z,4.43
2018-09-19T10:11:09.560Z,5.97
2018-09-19T10:13:38.130Z,4.30
2018-09-19T10:16:06.620Z,4.67
2018-09-19T10:18:35.117Z,4.60
2018-09-19T10:21:03.634Z,5.30
2018-09-19T10:23:32.169Z,4.30
2018-09-19T10:26:01.191Z,4.87
2018-09-19T10:28:29.657Z,4.70
2018-09-19T10:30:58.167Z,4.27
2018-09-19T10:33:26.666Z,3.87
2018-09-19T10:35:55.143Z,4.67
2018-09-19T10:38:23.625Z,4.27
2018-09-19T10:40:52.095Z,4.20
2018-09-19T10:43:20.553Z,4.60
2018-09-19T10:45:49.171Z,3.97
2018-09-19T10:48:17.631Z,4.20
2018-09-19T10:50:46.123Z,4.13
2018-09-19T10:53:14.635Z,3.83
2018-09-19T10:55:43.122Z,3.63
2018-09-19T10:58:11.688Z,3.20
2018-09-19T11:00:40.215Z,3.30
2018-09-19T11:03:08.671Z,3.17
2018-09-19T11:05:37.196Z,3.23
2018-09-19T11:08:05.685Z,3.57
2018-09-19T11:10:34.245Z,3.67
2018-09-19T11:13:02.825Z,4.10
2018-09-19T11:15:31.328Z,3.23
2018-09-19T11:17:59.807Z,3.77
2018-09-19T11:20:28.289Z,3.43
2018-09-19T11:22:56.800Z,3.77
2018-09-19T11:25:25.310Z,3.57
2018-09-19T11:27:53.782Z,3.63
2018-09-19T11:30:22.276Z,3.30
2018-09-19T11:32:50.908Z,3.50
2018-09-19T11:35:19.393Z,3.77
2018-09-19T11:37:47.849Z,3.90
2018-09-19T11:40:16.445Z,3.73
2018-09-19T11:42:44.924Z,3.60
2018-09-19T11:45:13.429Z,3.30
2018-09-19T11:47:41.873Z,3.63
2018-09-19T11:50:10.397Z,3.83
2018-09-19T11:52:38.893Z,3.40
2018-09-19T11:55:07.430Z,3.40
2018-09-19T11:57:35.917Z,3.40
2018-09-19T12:00:04.807Z,3.50
2018-09-19T12:02:33.271Z,4.73
2018-09-19T12:05:01.767Z,3.33
2018-09-19T12:07:30.678Z,3.40
2018-09-19T12:09:59.148Z,3.50
2018-09-19T12:12:27.696Z,3.63
2018-09-19T12:14:56.228Z,3.70
2018-09-19T12:17:24.712Z,3.17
2018-09-19T12:19:53.195Z,3.57
2018-09-19T12:22:21.706Z,3.27
2018-09-19T12:24:50.205Z,7.30
2018-09-19T12:27:18.704Z,3.80
2018-09-19T12:29:47.145Z,3.00
2018-09-19T12:32:15.608Z,3.40
2018-09-19T12:34:44.072Z,3.20
2018-09-19T12:37:12.562Z,3.30
2018-09-19T12:39:41.098Z,2.60
2018-09-19T12:42:09.550Z,3.07
2018-09-19T12:44:38.020Z,3.00
2018-09-19T12:47:06.582Z,3.50
2018-09-19T12:49:35.064Z,3.20
2018-09-19T12:52:03.597Z,2.87
2018-09-19T12:54:33.072Z,3.10
2018-09-19T12:57:01.612Z,3.40
2018-09-19T12:59:30.090Z,3.63
2018-09-19T13:01:58.573Z,4.43
2018-09-19T13:04:27.725Z,4.10
2018-09-19T13:06:56.288Z,3.80
2018-09-19T13:09:24.848Z,3.57
2018-09-19T13:11:53.399Z,3.67
2018-09-19T13:14:21.839Z,3.50
2018-09-19T13:16:50.377Z,3.20
2018-09-19T13:19:18.841Z,3.20
2018-09-19T13:21:50.904Z,3.47
2018-09-19T13:24:19.398Z,3.80
2018-09-19T13:26:47.910Z,3.70
2018-09-19T13:29:16.365Z,3.52
2018-09-19T13:31:45.680Z,3.60
2018-09-19T13:34:14.155Z,3.60
2018-09-19T13:36:42.667Z,3.20
2018-09-19T13:39:12.383Z,3.13
2018-09-19T13:41:41.160Z,3.63
2018-09-19T13:44:09.645Z,3.60
2018-09-19T13:46:38.106Z,3.67
2018-09-19T13:49:10.018Z,3.65
2018-09-19T13:51:38.506Z,3.80
2018-09-19T13:54:07.017Z,3.80
2018-09-19T13:56:35.587Z,3.17
2018-09-19T13:59:04.130Z,3.40
2018-09-19T14:01:32.633Z,3.52
2018-09-19T14:04:01.212Z,3.72
2018-09-19T14:06:29.777Z,45.23
2018-09-19T14:08:58.282Z,17.23
2018-09-19T14:11:26.929Z,40.15
2018-09-19T14:13:55.505Z,20.25
2018-09-19T14:16:24.029Z,11.45
2018-09-19T14:18:52.744Z,76.70
2018-09-19T14:21:21.305Z,86.42
2018-09-19T14:23:49.982Z,71.28
2018-09-19T14:26:18.805Z,50.60
2018-09-19T14:28:47.444Z,54.40
2018-09-19T14:31:15.932Z,27.90
2018-09-19T14:33:44.538Z,22.52
2018-09-19T14:36:13.109Z,20.35
2018-09-19T14:38:41.733Z,10.55
2018-09-19T14:41:10.309Z,7.42
2018-09-19T14:43:38.861Z,4.65
2018-09-19T14:46:07.681Z,9.33
2018-09-19T14:48:36.341Z,4.03
2018-09-19T14:51:04.850Z,4.00
2018-09-19T14:53:33.434Z,5.45
2018-09-19T14:56:02.201Z,4.40
2018-09-19T14:58:30.806Z,4.58
2018-09-19T15:00:59.364Z,4.00
2018-09-19T15:03:27.945Z,3.90
2018-09-19T15:05:56.550Z,3.90
2018-09-19T15:08:25.090Z,3.83
2018-09-19T15:10:54.420Z,3.67
2018-09-19T15:13:22.960Z,3.67
2018-09-19T15:15:51.483Z,4.28
2018-09-19T15:18:19.971Z,4.12
2018-09-19T15:20:48.481Z,13.85
2018-09-19T15:23:16.996Z,50.43
2018-09-19T15:25:45.571Z,147.68
2018-09-19T15:28:14.071Z,63.52
2018-09-19T15:30:43.042Z,37.20
2018-09-19T15:33:11.936Z,38.85
2018-09-19T15:35:40.520Z,10.63
2018-09-19T15:38:09.223Z,17.98
2018-09-19T15:40:37.876Z,13.00
2018-09-19T15:43:06.530Z,6.47
2018-09-19T15:45:35.110Z,7.40
2018-09-19T15:48:04.128Z,9.18
2018-09-19T15:50:33.410Z,6.72
2018-09-19T15:53:02.029Z,4.67
2018-09-19T15:55:30.669Z,4.90
2018-09-19T15:57:59.152Z,7.62
2018-09-19T16:00:27.721Z,4.87
2018-09-19T16:02:56.308Z,5.10
2018-09-19T16:05:24.856Z,4.22
2018-09-19T16:07:53.598Z,4.92
2018-09-19T16:10:22.101Z,4.67
2018-09-19T16:12:50.615Z,3.98
2018-09-19T16:15:19.169Z,3.55
2018-09-19T16:17:47.744Z,4.10
2018-09-19T16:20:16.289Z,4.05
2018-09-19T16:22:45.650Z,4.30
2018-09-19T16:25:14.402Z,3.67
2018-09-19T16:27:42.851Z,3.77
2018-09-19T16:30:11.497Z,4.20
2018-09-19T16:32:40.069Z,3.90
2018-09-19T16:35:08.653Z,5.28
2018-09-19T16:37:37.238Z,5.63
2018-09-19T16:40:05.891Z,10.37
2018-09-19T16:42:34.515Z,42.50
2018-09-19T16:45:03.672Z,57.77
2018-09-19T16:47:32.197Z,30.88
2018-09-19T16:50:00.970Z,36.10
2018-09-19T16:52:29.634Z,21.03
2018-09-19T16:54:58.745Z,18.53
2018-09-19T16:57:27.263Z,60.90
2018-09-19T16:59:55.854Z,47.50
2018-09-19T17:02:24.554Z,123.67
2018-09-19T17:04:53.245Z,15.47
2018-09-19T17:07:21.800Z,8.73
2018-09-19T17:09:50.403Z,7.30
2018-09-19T17:12:19.056Z,7.00
2018-09-19T17:14:47.657Z,7.40
2018-09-19T17:17:16.222Z,5.23
2018-09-19T17:19:44.870Z,6.87
2018-09-19T17:22:13.493Z,6.20
2018-09-19T17:24:42.045Z,5.45
2018-09-19T17:27:11.344Z,4.90
2018-09-19T17:29:39.973Z,4.43
2018-09-19T17:32:09.199Z,4.73
2018-09-19T17:34:37.858Z,4.47
2018-09-19T17:37:06.440Z,4.87
2018-09-19T17:39:36.682Z,5.07
2018-09-19T17:42:05.287Z,4.80
2018-09-19T17:44:34.131Z,4.83
2018-09-19T17:47:02.845Z,4.93
2018-09-19T17:49:31.691Z,4.37
2018-09-19T17:52:00.392Z,4.20
2018-09-19T17:54:29.041Z,4.77
2018-09-19T17:56:57.724Z,4.90
2018-09-19T17:59:26.379Z,4.90
2018-09-19T18:01:54.959Z,4.70
2018-09-19T18:04:23.534Z,4.67
2018-09-19T18:06:52.813Z,5.03
2018-09-19T18:09:21.531Z,5.30
2018-09-19T18:11:50.043Z,5.13
2018-09-19T18:14:18.721Z,4.87
2018-09-19T18:16:47.553Z,5.27
2018-09-19T18:19:16.165Z,6.00
2018-09-19T18:21:44.714Z,4.70
2018-09-19T18:24:13.333Z,4.80
2018-09-19T18:26:42.063Z,4.70
2018-09-19T18:29:10.811Z,5.07
2018-09-19T18:31:39.412Z,17.40
2018-09-19T18:34:08.108Z,32.77
2018-09-19T18:36:36.745Z,25.70
2018-09-19T18:39:05.854Z,29.53
2018-09-19T18:41:35.873Z,68.17
2018-09-19T18:44:04.506Z,25.90
2018-09-19T18:46:33.193Z,71.07
2018-09-19T18:49:01.949Z,40.50
2018-09-19T18:51:30.717Z,59.30
2018-09-19T18:53:59.465Z,21.30
2018-09-19T18:56:28.369Z,21.40
2018-09-19T18:58:56.962Z,22.37
2018-09-19T19:01:25.570Z,29.23
2018-09-19T19:03:54.183Z,25.73
2018-09-19T19:06:22.830Z,31.63
2018-09-19T19:08:51.324Z,18.10
2018-09-19T19:11:20.079Z,11.60
2018-09-19T19:13:48.687Z,31.13
2018-09-19T19:16:17.728Z,20.53
2018-09-19T19:18:46.384Z,24.83
2018-09-19T19:21:14.885Z,17.33
2018-09-19T19:23:45.687Z,57.67
2018-09-19T19:26:14.332Z,47.03
2018-09-19T19:28:43.854Z,62.27
2018-09-19T19:31:12.485Z,56.43
2018-09-19T19:33:44.623Z,104.20
2018-09-19T19:36:13.624Z,64.57
2018-09-19T19:38:42.251Z,38.83
2018-09-19T19:41:10.806Z,51.87
2018-09-19T19:43:39.571Z,23.07
2018-09-19T19:46:08.239Z,27.03
2018-09-19T19:48:36.758Z,17.70
2018-09-19T19:51:05.411Z,14.00
2018-09-19T19:53:33.887Z,8.83
2018-09-19T19:56:02.579Z,9.93
2018-09-19T19:58:31.098Z,10.23
2018-09-19T20:00:59.851Z,12.57
2018-09-19T20:03:28.382Z,17.67
2018-09-19T20:05:56.937Z,17.03
2018-09-19T20:08:25.492Z,28.50
2018-09-19T20:10:54.142Z,76.03
2018-09-19T20:13:22.697Z,93.17
2018-09-19T20:15:51.431Z,108.10
2018-09-19T20:18:19.937Z,120.83
2018-09-19T20:20:48.581Z,98.17
2018-09-19T20:23:17.225Z,25.83
2018-09-19T20:25:45.941Z,21.50
2018-09-19T20:28:14.477Z,33.77
2018-09-19T20:30:43.034Z,37.63
2018-09-19T20:33:11.574Z,45.50
2018-09-19T20:35:40.114Z,47.83
2018-09-19T20:38:08.780Z,30.07
2018-09-19T20:40:37.427Z,25.10
2018-09-19T20:43:06.045Z,23.73
2018-09-19T20:45:34.728Z,19.30
2018-09-19T20:48:03.321Z,24.83
2018-09-19T20:50:31.799Z,24.83
2018-09-19T20:53:00.300Z,21.10
2018-09-19T20:55:28.890Z,10.93
2018-09-19T20:57:57.474Z,11.10
2018-09-19T21:00:26.134Z,27.93
2018-09-19T21:02:54.724Z,32.63
2018-09-19T21:05:23.298Z,33.20
2018-09-19T21:07:51.820Z,10.20
2018-09-19T21:10:20.430Z,23.20
2018-09-19T21:12:49.018Z,21.63
2018-09-19T21:15:17.649Z,12.10
2018-09-19T21:17:46.263Z,23.83
2018-09-19T21:20:14.817Z,12.50
2018-09-19T21:22:43.545Z,26.50
2018-09-19T21:25:12.065Z,17.00
2018-09-19T21:27:40.665Z,17.10
2018-09-19T21:30:09.233Z,10.83
2018-09-19T21:32:37.818Z,25.13
2018-09-19T21:35:06.385Z,19.07
2018-09-19T21:37:34.890Z,17.33
2018-09-19T21:40:03.496Z,16.50
2018-09-19T21:42:32.061Z,12.93
2018-09-19T21:45:00.817Z,9.90
2018-09-19T21:47:29.328Z,11.20
2018-09-19T21:49:57.876Z,10.97
2018-09-19T21:52:26.518Z,6.63
2018-09-19T21:54:55.099Z,6.90
2018-09-19T21:57:23.629Z,8.43
2018-09-19T21:59:52.114Z,8.47
2018-09-19T22:02:20.721Z,15.97
2018-09-19T22:04:49.272Z,20.70
2018-09-19T22:07:17.976Z,27.60
2018-09-19T22:09:46.577Z,10.87
2018-09-19T22:12:15.118Z,11.87
2018-09-19T22:14:43.776Z,15.13
2018-09-19T22:17:12.653Z,17.03
2018-09-19T22:19:41.225Z,21.00
2018-09-19T22:22:09.772Z,12.87
2018-09-19T22:24:38.491Z,14.30
2018-09-19T22:27:07.060Z,10.70
2018-09-19T22:29:35.661Z,23.13
2018-09-19T22:32:04.275Z,20.50
2018-09-19T22:34:32.840Z,18.53
2018-09-19T22:37:01.372Z,15.03
2018-09-19T22:39:29.969Z,11.47
2018-09-19T22:41:58.575Z,12.60
2018-09-19T22:44:27.121Z,13.13
2018-09-19T22:46:55.695Z,7.93
2018-09-19T22:49:24.179Z,10.13
2018-09-19T22:51:52.778Z,10.40
2018-09-19T22:54:21.349Z,10.67
2018-09-19T22:56:49.904Z,9.13
2018-09-19T22:59:18.429Z,9.87
2018-09-19T23:01:46.980Z,8.53
2018-09-19T23:04:15.468Z,7.93
2018-09-19T23:06:44.072Z,8.43
2018-09-19T23:09:12.636Z,9.17
2018-09-19T23:11:41.212Z,8.60
2018-09-19T23:14:09.713Z,8.00
2018-09-19T23:16:38.284Z,8.13
2018-09-19T23:19:07.495Z,9.47
2018-09-19T23:21:36.066Z,9.07
2018-09-19T23:24:04.642Z,7.23
2018-09-19T23:26:33.209Z,7.53
2018-09-19T23:29:01.724Z,8.17
2018-09-19T23:31:30.272Z,7.77
2018-09-19T23:33:58.779Z,9.33
2018-09-19T23:36:27.337Z,6.80
2018-09-19T23:38:55.817Z,8.43
2018-09-19T23:41:24.326Z,10.80
2018-09-19T23:43:52.885Z,8.83
2018-09-19T23:46:21.456Z,7.80
2018-09-19T23:48:49.947Z,11.33
2018-09-19T23:51:18.488Z,11.33
2018-09-19T23:53:47.032Z,12.17
2018-09-19T23:56:15.711Z,12.93
2018-09-19T23:58:44.300Z,11.77
